createdAt,value
2018-10-21T00:01:33.558Z,79.83
2018-10-21T00:04:02.432Z,78.73
2018-10-21T00:06:31.344Z,79.29
2018-10-21T00:09:00.590Z,79.57
2018-10-21T00:11:29.543Z,79.39
2018-10-21T00:13:58.444Z,79.41
2018-10-21T00:16:43.832Z,79.11
2018-10-21T00:19:12.711Z,78.95
2018-10-21T00:21:41.660Z,79.00
2018-10-21T00:24:16.628Z,79.47
2018-10-21T00:26:45.539Z,79.37
2018-10-21T00:29:14.418Z,79.22
2018-10-21T00:31:43.353Z,80.01
2018-10-21T00:34:14.302Z,79.37
2018-10-21T00:36:43.211Z,80.46
2018-10-21T00:39:13.560Z,79.81
2018-10-21T00:41:50.808Z,79.55
2018-10-21T00:44:19.711Z,80.04
2018-10-21T00:46:48.586Z,80.58
2018-10-21T00:49:18.566Z,80.34
2018-10-21T00:51:49.526Z,80.42
2018-10-21T00:54:18.431Z,80.17
2018-10-21T00:56:47.873Z,80.86
2018-10-21T00:59:22.455Z,80.63
2018-10-21T01:01:52.754Z,80.75
2018-10-21T01:04:22.670Z,80.35
2018-10-21T01:06:51.573Z,80.78
2018-10-21T01:09:26.702Z,81.17
2018-10-21T01:12:03.473Z,81.40
2018-10-21T01:17:26.635Z,81.52
2018-10-21T01:19:56.630Z,81.58
2018-10-21T01:22:40.477Z,81.99
2018-10-21T01:25:14.954Z,81.31
2018-10-21T01:27:43.823Z,81.27
2018-10-21T01:30:13.302Z,80.81
2018-10-21T01:32:48.136Z,80.60
2018-10-21T01:35:17.104Z,80.24
2018-10-21T01:37:46.074Z,80.29
2018-10-21T01:40:35.742Z,79.07
2018-10-21T01:43:07.578Z,79.91
2018-10-21T01:45:36.514Z,79.49
2018-10-21T01:48:06.882Z,78.88
2018-10-21T01:50:35.860Z,79.82
2018-10-21T01:53:05.888Z,79.65
2018-10-21T01:55:34.748Z,78.88
2018-10-21T01:58:15.753Z,78.89
2018-10-21T02:00:44.845Z,79.44
2018-10-21T02:03:13.898Z,79.97
2018-10-21T02:05:54.896Z,79.95
2018-10-21T02:08:23.815Z,80.04
2018-10-21T02:11:06.805Z,79.24
2018-10-21T02:13:35.698Z,79.43
2018-10-21T02:16:04.608Z,80.42
2018-10-21T02:18:35.577Z,79.59
2018-10-21T02:21:04.520Z,80.43
2018-10-21T02:23:35.369Z,79.93
2018-10-21T02:26:04.270Z,79.58
2018-10-21T02:28:33.171Z,79.60
2018-10-21T02:31:20.861Z,80.56
2018-10-21T02:33:49.770Z,80.26
2018-10-21T02:36:29.665Z,79.88
2018-10-21T02:39:07.930Z,80.29
2018-10-21T02:41:48.322Z,80.01
2018-10-21T02:44:20.791Z,80.37
2018-10-21T02:46:51.268Z,79.70
2018-10-21T02:49:20.726Z,79.94
2018-10-21T02:51:55.005Z,80.13
2018-10-21T02:54:28.985Z,80.54
2018-10-21T02:56:57.865Z,79.73
2018-10-21T02:59:26.920Z,80.47
2018-10-21T03:01:55.824Z,81.08
2018-10-21T03:04:25.852Z,81.34
2018-10-21T03:06:54.762Z,80.27
2018-10-21T03:09:23.627Z,81.03
2018-10-21T03:11:52.520Z,81.15
2018-10-21T03:14:28.522Z,80.26
2018-10-21T03:17:01.321Z,80.59
2018-10-21T03:19:31.037Z,81.20
2018-10-21T03:22:07.417Z,79.23
2018-10-21T03:24:40.113Z,79.78
2018-10-21T03:27:09.491Z,81.41
2018-10-21T03:29:40.688Z,79.81
2018-10-21T03:32:09.933Z,79.83
2018-10-21T03:34:46.638Z,80.24
2018-10-21T03:37:21.573Z,80.28
2018-10-21T03:39:50.921Z,80.55
2018-10-21T03:42:19.864Z,80.33
2018-10-21T03:44:48.729Z,80.65
2018-10-21T03:47:23.364Z,81.22
2018-10-21T03:49:52.257Z,80.43
2018-10-21T03:52:21.144Z,81.17
2018-10-21T03:54:50.234Z,81.27
2018-10-21T03:57:19.098Z,80.57
2018-10-21T03:59:47.977Z,80.24
2018-10-21T04:02:27.719Z,80.50
2018-10-21T04:04:56.606Z,80.25
2018-10-21T04:07:37.525Z,81.24
2018-10-21T04:10:06.448Z,83.36
2018-10-21T04:12:36.399Z,79.55
2018-10-21T04:15:07.676Z,78.80
2018-10-21T04:17:47.167Z,79.49
2018-10-21T04:20:16.187Z,80.30
2018-10-21T04:23:04.074Z,80.50
2018-10-21T04:25:36.589Z,80.40
2018-10-21T04:28:24.885Z,80.46
2018-10-21T04:31:11.901Z,79.18
2018-10-21T04:33:46.852Z,79.42
2018-10-21T04:36:20.407Z,79.64
2018-10-21T04:40:03.690Z,80.13
2018-10-21T04:42:42.136Z,79.47
2018-10-21T04:45:12.343Z,79.57
2018-10-21T04:47:41.355Z,79.48
2018-10-21T04:50:32.763Z,80.15
2018-10-21T04:53:06.133Z,78.34
2018-10-21T04:55:40.333Z,87.16
2018-10-21T04:58:09.832Z,74.39
2018-10-21T05:00:49.654Z,75.67
2018-10-21T05:03:19.059Z,73.09
2018-10-21T05:05:48.564Z,76.07
2018-10-21T05:08:19.010Z,75.67
2018-10-21T05:10:48.372Z,76.42
2018-10-21T05:13:18.026Z,78.28
2018-10-21T05:15:49.542Z,78.89
2018-10-21T05:18:24.599Z,78.64
2018-10-21T05:26:57.522Z,80.19
2018-10-21T05:29:27.592Z,80.67
2018-10-21T05:32:00.472Z,80.85
2018-10-21T05:34:30.383Z,80.56
2018-10-21T05:37:02.407Z,80.05
2018-10-21T05:39:40.930Z,79.18
2018-10-21T05:42:14.117Z,80.30
2018-10-21T05:44:56.007Z,82.50
2018-10-21T05:47:25.940Z,78.69
2018-10-21T05:49:54.823Z,77.15
2018-10-21T05:52:24.721Z,79.01
2018-10-21T05:54:57.550Z,79.26
2018-10-21T05:57:26.414Z,79.57
2018-10-21T05:59:55.299Z,80.64
2018-10-21T06:02:40.293Z,80.03
2018-10-21T06:05:21.480Z,80.14
2018-10-21T06:08:03.827Z,80.79
2018-10-21T06:10:36.730Z,81.18
2018-10-21T06:13:20.345Z,81.62
2018-10-21T06:16:02.108Z,80.71
2018-10-21T06:18:36.708Z,80.29
2018-10-21T06:21:06.223Z,81.05
2018-10-21T06:23:35.239Z,81.45
2018-10-21T06:26:04.115Z,81.65
2018-10-21T06:28:33.067Z,81.21
2018-10-21T06:31:01.940Z,81.61
2018-10-21T06:33:30.851Z,81.66
2018-10-21T06:36:00.879Z,80.47
2018-10-21T06:38:47.268Z,80.64
2018-10-21T06:41:16.218Z,81.40
2018-10-21T06:43:45.102Z,81.53
2018-10-21T06:46:14.001Z,81.35
2018-10-21T06:48:59.035Z,81.17
2018-10-21T06:51:27.917Z,81.18
2018-10-21T06:53:56.816Z,81.37
2018-10-21T06:56:25.927Z,80.86
2018-10-21T06:58:54.802Z,81.53
2018-10-21T07:01:23.685Z,81.66
2018-10-21T07:03:52.565Z,81.93
2018-10-21T07:09:17.293Z,82.08
2018-10-21T07:11:46.185Z,81.25
2018-10-21T07:14:15.088Z,81.57
2018-10-21T07:16:51.704Z,81.37
2018-10-21T07:19:21.736Z,81.78
2018-10-21T07:22:03.787Z,81.19
2018-10-21T07:24:32.697Z,81.50
2018-10-21T07:27:01.594Z,81.74
2018-10-21T07:29:30.489Z,81.99
2018-10-21T07:31:59.429Z,81.97
2018-10-21T07:34:28.460Z,82.26
2018-10-21T07:36:58.486Z,80.81
2018-10-21T07:39:28.502Z,80.98
2018-10-21T07:42:02.458Z,81.12
2018-10-21T07:44:37.812Z,81.51
2018-10-21T07:47:06.796Z,81.48
2018-10-21T07:52:35.620Z,80.48
2018-10-21T07:55:06.653Z,80.90
2018-10-21T07:57:47.127Z,79.82
2018-10-21T08:00:16.226Z,79.74
2018-10-21T08:02:47.216Z,79.67
2018-10-21T08:06:28.424Z,80.98
2018-10-21T08:08:57.348Z,79.91
2018-10-21T08:11:33.433Z,80.08
2018-10-21T08:14:02.420Z,79.68
2018-10-21T08:16:31.442Z,80.26
2018-10-21T08:19:00.338Z,78.79
2018-10-21T08:21:29.443Z,78.85
2018-10-21T08:23:58.391Z,78.91
2018-10-21T08:26:27.244Z,78.29
2018-10-21T08:28:56.145Z,77.55
2018-10-21T08:31:30.210Z,77.96
2018-10-21T08:33:59.178Z,77.89
2018-10-21T08:36:28.148Z,78.03
2018-10-21T08:38:57.102Z,78.10
2018-10-21T08:41:26.051Z,77.96
2018-10-21T08:43:54.982Z,77.09
2018-10-21T08:46:30.129Z,76.21
2018-10-21T08:48:58.965Z,76.23
2018-10-21T08:51:41.309Z,76.59
2018-10-21T08:54:19.945Z,76.32
2018-10-21T08:56:49.000Z,75.58
2018-10-21T08:59:17.938Z,75.09
2018-10-21T09:01:47.855Z,75.44
2018-10-21T09:04:18.877Z,74.42
2018-10-21T09:06:47.933Z,74.92
2018-10-21T09:09:31.271Z,74.10
2018-10-21T09:12:06.288Z,73.12
2018-10-21T09:14:49.149Z,73.48
2018-10-21T09:17:23.972Z,73.38
2018-10-21T09:20:05.541Z,72.54
2018-10-21T09:22:49.213Z,73.11
2018-10-21T09:25:18.123Z,73.06
2018-10-21T09:28:03.937Z,72.18
2018-10-21T09:30:39.290Z,71.80
2018-10-21T09:33:10.231Z,72.16
2018-10-21T09:35:45.229Z,71.58
2018-10-21T09:38:31.545Z,72.05
2018-10-21T09:41:14.531Z,72.31
2018-10-21T09:43:44.068Z,71.61
2018-10-21T09:46:13.313Z,70.84
2018-10-21T09:48:42.475Z,71.46
2018-10-21T09:51:15.121Z,70.33
2018-10-21T09:53:45.040Z,70.45
2018-10-21T09:56:13.933Z,69.52
2018-10-21T09:58:42.913Z,70.07
2018-10-21T10:01:19.221Z,70.28
2018-10-21T10:03:55.191Z,69.04
2018-10-21T10:06:24.167Z,67.80
2018-10-21T10:09:03.544Z,68.32
2018-10-21T10:11:36.708Z,67.66
2018-10-21T10:14:07.712Z,67.41
2018-10-21T10:16:47.472Z,68.19
2018-10-21T10:22:15.382Z,67.43
2018-10-21T10:25:06.920Z,66.91
2018-10-21T10:27:45.305Z,67.29
2018-10-21T10:30:14.304Z,66.48
2018-10-21T10:32:44.087Z,66.07
2018-10-21T10:35:14.057Z,65.31
2018-10-21T10:37:50.944Z,65.88
2018-10-21T10:40:29.612Z,64.57
2018-10-21T10:43:03.177Z,64.35
2018-10-21T10:45:32.000Z,64.46
2018-10-21T10:48:00.879Z,64.63
2018-10-21T10:50:29.880Z,64.07
2018-10-21T10:53:02.327Z,63.97
2018-10-21T10:55:36.358Z,63.96
2018-10-21T10:58:05.588Z,63.87
2018-10-21T11:00:36.442Z,63.16
2018-10-21T11:03:05.424Z,62.86
2018-10-21T11:05:34.306Z,63.94
2018-10-21T11:08:03.208Z,62.93
2018-10-21T11:10:32.218Z,62.31
2018-10-21T11:13:01.494Z,62.30
2018-10-21T11:15:32.418Z,62.53
2018-10-21T11:18:01.424Z,61.98
2018-10-21T11:20:34.603Z,62.03
2018-10-21T11:23:09.304Z,61.32
2018-10-21T11:25:38.212Z,60.93
2018-10-21T11:28:09.202Z,60.66
2018-10-21T11:30:38.075Z,61.40
2018-10-21T11:33:27.397Z,60.93
2018-10-21T11:35:56.738Z,60.32
2018-10-21T11:38:25.704Z,60.96
2018-10-21T11:40:54.590Z,61.03
2018-10-21T11:43:23.485Z,60.10
2018-10-21T11:45:52.384Z,60.42
2018-10-21T11:48:21.260Z,59.84
2018-10-21T11:50:50.145Z,59.65
2018-10-21T11:56:18.354Z,59.06
2018-10-21T11:58:47.266Z,58.15
2018-10-21T12:01:16.227Z,57.96
2018-10-21T12:03:45.021Z,58.34
2018-10-21T12:06:13.879Z,57.96
2018-10-21T12:08:42.747Z,57.87
2018-10-21T12:11:11.632Z,57.95
2018-10-21T12:13:40.536Z,57.22
2018-10-21T12:16:09.458Z,56.71
2018-10-21T12:18:38.329Z,57.33
2018-10-21T12:21:07.243Z,56.31
2018-10-21T12:23:36.188Z,55.89
2018-10-21T12:26:20.988Z,56.49
2018-10-21T12:28:49.927Z,55.64
2018-10-21T12:31:18.903Z,55.34
2018-10-21T12:34:10.175Z,54.54
2018-10-21T12:36:39.088Z,53.68
2018-10-21T12:39:09.434Z,53.51
2018-10-21T12:41:41.431Z,52.92
2018-10-21T12:44:10.296Z,53.47
2018-10-21T12:46:47.500Z,52.24
2018-10-21T12:49:16.473Z,52.42
2018-10-21T12:51:50.794Z,52.36
2018-10-21T12:54:19.724Z,51.67
2018-10-21T12:56:48.560Z,51.97
2018-10-21T12:59:17.454Z,51.70
2018-10-21T13:01:51.624Z,51.40
2018-10-21T13:04:20.531Z,51.77
2018-10-21T13:06:49.440Z,51.77
2018-10-21T13:09:18.332Z,51.84
2018-10-21T13:11:47.204Z,52.27
2018-10-21T13:14:16.098Z,52.02
2018-10-21T13:19:38.378Z,51.84
2018-10-21T13:22:07.237Z,52.15
2018-10-21T13:24:37.069Z,51.68
2018-10-21T13:27:06.006Z,52.61
2018-10-21T13:29:34.972Z,53.52
2018-10-21T13:32:05.119Z,52.74
2018-10-21T13:34:34.055Z,52.63
2018-10-21T13:37:03.077Z,51.52
2018-10-21T13:39:31.954Z,51.25
2018-10-21T13:42:00.854Z,50.86
2018-10-21T13:44:29.755Z,51.10
2018-10-21T13:46:58.630Z,51.18
2018-10-21T13:49:27.520Z,50.81
2018-10-21T13:51:56.535Z,51.54
2018-10-21T13:54:25.240Z,51.29
2018-10-21T13:56:57.380Z,51.23
2018-10-21T13:59:26.247Z,51.45
2018-10-21T14:01:55.241Z,51.20
2018-10-21T14:04:25.224Z,50.33
2018-10-21T14:06:54.199Z,50.64
2018-10-21T14:09:23.468Z,51.32
2018-10-21T14:11:52.816Z,51.18
2018-10-21T14:14:29.760Z,51.42
2018-10-21T14:16:59.170Z,51.76
2018-10-21T14:19:51.313Z,51.33
2018-10-21T14:22:20.681Z,50.70
2018-10-21T14:24:51.051Z,51.31
2018-10-21T14:27:19.927Z,49.70
2018-10-21T14:29:48.802Z,49.99
2018-10-21T14:32:17.773Z,50.12
2018-10-21T14:34:46.995Z,50.09
2018-10-21T14:37:16.163Z,50.42
2018-10-21T14:39:45.091Z,49.92
2018-10-21T14:42:15.133Z,50.52
2018-10-21T14:44:48.994Z,50.16
2018-10-21T14:47:17.964Z,50.18
2018-10-21T14:49:46.874Z,50.85
2018-10-21T14:52:33.734Z,50.42
2018-10-21T14:55:04.808Z,49.68
2018-10-21T14:57:58.629Z,49.72
2018-10-21T15:00:27.652Z,49.97
2018-10-21T15:03:02.115Z,50.09
2018-10-21T15:05:30.944Z,50.32
2018-10-21T15:11:10.024Z,50.89
2018-10-21T15:13:38.894Z,51.24
2018-10-21T15:16:07.865Z,51.69
2018-10-21T15:18:36.783Z,51.34
2018-10-21T15:21:05.711Z,51.65
2018-10-21T15:23:36.717Z,51.35
2018-10-21T15:26:24.718Z,52.30
2018-10-21T15:29:08.285Z,51.95
2018-10-21T15:31:55.373Z,51.92
2018-10-21T15:34:24.268Z,52.04
2018-10-21T15:36:53.269Z,52.69
2018-10-21T15:39:25.824Z,53.16
2018-10-21T15:41:54.709Z,53.38
2018-10-21T15:44:23.551Z,53.67
2018-10-21T15:46:52.421Z,53.85
2018-10-21T15:49:21.320Z,54.34
2018-10-21T15:51:50.271Z,53.93
2018-10-21T15:54:19.135Z,54.39
2018-10-21T15:56:48.084Z,54.41
2018-10-21T15:59:16.973Z,55.33
2018-10-21T16:01:58.466Z,55.56
2018-10-21T16:04:28.368Z,55.86
2018-10-21T16:06:57.241Z,56.57
2018-10-21T16:09:26.143Z,57.17
2018-10-21T16:12:00.796Z,57.30
2018-10-21T16:14:29.768Z,57.90
2018-10-21T16:16:58.560Z,58.70
2018-10-21T16:19:35.996Z,58.63
2018-10-21T16:22:04.966Z,59.17
2018-10-21T16:24:33.838Z,59.20
2018-10-21T16:27:14.665Z,59.74
2018-10-21T16:29:45.678Z,59.61
2018-10-21T16:35:21.783Z,60.71
2018-10-21T16:37:50.679Z,61.94
2018-10-21T16:40:19.608Z,61.35
2018-10-21T16:42:48.512Z,61.71
2018-10-21T16:45:17.473Z,61.48
2018-10-21T16:47:58.101Z,61.88
2018-10-21T16:50:26.962Z,62.14
2018-10-21T16:53:00.837Z,62.82
2018-10-21T16:55:37.047Z,62.66
2018-10-21T16:58:18.058Z,62.90
2018-10-21T17:00:48.109Z,62.70
2018-10-21T17:03:17.081Z,62.88
2018-10-21T17:05:45.883Z,62.70
2018-10-21T17:08:14.710Z,63.15
2018-10-21T17:10:43.936Z,63.02
2018-10-21T17:13:12.621Z,63.15
2018-10-21T17:15:47.540Z,64.00
2018-10-21T17:18:23.394Z,63.95
2018-10-21T17:20:53.364Z,63.97
2018-10-21T17:23:34.185Z,64.12
2018-10-21T17:26:07.377Z,64.13
2018-10-21T17:28:36.300Z,64.59
2018-10-21T17:31:05.396Z,63.96
2018-10-21T17:33:34.211Z,64.34
2018-10-21T17:36:03.131Z,64.39
2018-10-21T17:38:32.024Z,64.53
2018-10-21T17:41:09.349Z,64.48
2018-10-21T17:43:48.678Z,65.29
2018-10-21T17:46:20.901Z,65.27
2018-10-21T17:51:50.878Z,65.78
2018-10-21T17:54:30.845Z,66.20
2018-10-21T17:57:00.887Z,65.53
2018-10-21T17:59:29.972Z,66.34
2018-10-21T18:01:59.125Z,66.31
2018-10-21T18:04:28.491Z,66.60
2018-10-21T18:06:58.429Z,66.31
2018-10-21T18:09:37.317Z,66.33
2018-10-21T18:12:20.622Z,66.43
2018-10-21T18:14:51.703Z,66.43
2018-10-21T18:20:15.884Z,67.44
2018-10-21T18:22:44.737Z,67.43
2018-10-21T18:25:13.818Z,66.75
2018-10-21T18:27:42.789Z,67.83
2018-10-21T18:30:12.405Z,66.77
2018-10-21T18:32:42.597Z,67.21
2018-10-21T18:35:14.916Z,67.71
2018-10-21T18:37:53.895Z,68.03
2018-10-21T18:40:30.874Z,67.71
2018-10-21T18:43:02.991Z,68.11
2018-10-21T18:45:31.956Z,67.88
2018-10-21T18:48:06.394Z,68.36
2018-10-21T18:50:35.333Z,68.62
2018-10-21T18:53:05.657Z,68.67
2018-10-21T18:55:35.805Z,68.50
2018-10-21T18:58:10.867Z,68.89
2018-10-21T19:00:39.757Z,68.70
2018-10-21T19:03:08.807Z,68.94
2018-10-21T19:05:37.739Z,68.90
2018-10-21T19:08:10.205Z,69.45
2018-10-21T19:10:39.212Z,68.88
2018-10-21T19:13:10.351Z,69.38
2018-10-21T19:15:40.632Z,69.57
2018-10-21T19:18:09.580Z,70.03
2018-10-21T19:20:47.592Z,69.74
2018-10-21T19:23:18.626Z,69.94
2018-10-21T19:26:01.856Z,70.55
2018-10-21T19:28:30.787Z,70.38
2018-10-21T19:30:59.697Z,70.47
2018-10-21T19:33:28.720Z,70.45
2018-10-21T19:36:00.735Z,71.05
2018-10-21T19:38:29.951Z,70.52
2018-10-21T19:40:59.445Z,70.40
2018-10-21T19:43:29.099Z,70.59
2018-10-21T19:45:59.015Z,70.62
2018-10-21T19:48:32.763Z,70.69
2018-10-21T19:51:02.373Z,70.68
2018-10-21T19:53:31.936Z,70.06
2018-10-21T19:56:01.380Z,70.61
2018-10-21T19:58:30.759Z,70.75
2018-10-21T20:01:09.696Z,70.15
2018-10-21T20:03:38.922Z,70.55
2018-10-21T20:06:08.301Z,71.22
2018-10-21T20:08:38.705Z,70.80
2018-10-21T20:11:09.760Z,71.87
2018-10-21T20:16:57.333Z,71.70
2018-10-21T20:19:26.240Z,71.86
2018-10-21T20:21:58.499Z,71.68
2018-10-21T20:24:27.429Z,72.04
2018-10-21T20:26:56.334Z,72.36
2018-10-21T20:29:25.220Z,71.81
2018-10-21T20:31:54.207Z,71.93
2018-10-21T20:34:23.012Z,71.68
2018-10-21T20:36:51.942Z,72.13
2018-10-21T20:39:20.850Z,72.49
2018-10-21T20:41:50.799Z,72.26
2018-10-21T20:44:19.680Z,73.00
2018-10-21T20:46:51.953Z,73.07
2018-10-21T20:49:20.814Z,73.21
2018-10-21T20:51:50.714Z,72.79
2018-10-21T20:54:19.609Z,73.01
2018-10-21T20:56:48.496Z,73.39
2018-10-21T20:59:17.509Z,73.41
2018-10-21T21:01:46.372Z,73.54
2018-10-21T21:04:22.695Z,73.16
2018-10-21T21:07:04.346Z,73.04
2018-10-21T21:09:33.219Z,74.12
2018-10-21T21:12:02.205Z,73.74
2018-10-21T21:14:31.021Z,73.34
2018-10-21T21:17:18.425Z,73.96
2018-10-21T21:19:47.329Z,74.50
2018-10-21T21:22:16.288Z,73.87
2018-10-21T21:24:45.139Z,73.70
2018-10-21T21:27:15.018Z,73.56
2018-10-21T21:29:58.797Z,74.21
2018-10-21T21:32:34.073Z,73.98
2018-10-21T21:35:08.593Z,73.85
2018-10-21T21:37:50.328Z,74.27
2018-10-21T21:40:19.229Z,74.58
2018-10-21T21:42:49.128Z,74.06
2018-10-21T21:45:21.729Z,74.25
2018-10-21T21:47:50.692Z,74.68
2018-10-21T21:50:43.858Z,74.79
2018-10-21T21:53:16.612Z,74.88
2018-10-21T21:55:48.595Z,74.60
2018-10-21T21:58:18.054Z,74.31
2018-10-21T22:01:00.644Z,74.80
2018-10-21T22:03:48.546Z,74.82
2018-10-21T22:06:17.516Z,74.90
2018-10-21T22:08:46.329Z,75.31
2018-10-21T22:11:15.294Z,75.64
2018-10-21T22:13:44.196Z,75.28
2018-10-21T22:16:13.123Z,75.34
2018-10-21T22:18:41.991Z,74.17
2018-10-21T22:21:14.903Z,75.09
2018-10-21T22:23:43.783Z,75.13
2018-10-21T22:26:12.650Z,74.47
2018-10-21T22:28:41.528Z,75.08
2018-10-21T22:31:10.437Z,74.93
2018-10-21T22:33:39.323Z,75.38
2018-10-21T22:36:08.310Z,75.43
2018-10-21T22:41:32.227Z,75.74
2018-10-21T22:44:01.144Z,76.00
2018-10-21T22:46:30.253Z,75.49
2018-10-21T22:48:59.090Z,75.78
2018-10-21T22:51:27.989Z,75.34
2018-10-21T22:53:56.917Z,75.82
2018-10-21T22:56:25.760Z,75.15
2018-10-21T22:58:59.931Z,76.03
2018-10-21T23:01:28.832Z,75.90
2018-10-21T23:03:57.764Z,76.71
2018-10-21T23:06:26.640Z,76.32
2018-10-21T23:08:55.512Z,75.77
2018-10-21T23:11:24.452Z,76.35
2018-10-21T23:13:53.304Z,76.05
2018-10-21T23:16:22.215Z,76.19
2018-10-21T23:19:04.350Z,75.50
2018-10-21T23:21:33.202Z,75.43
2018-10-21T23:24:02.119Z,75.16
2018-10-21T23:26:30.984Z,75.28
2018-10-21T23:29:00.951Z,75.88
2018-10-21T23:31:29.823Z,75.27
2018-10-21T23:33:58.813Z,75.72
2018-10-21T23:36:27.747Z,75.85
2018-10-21T23:38:56.806Z,75.61
2018-10-21T23:41:25.669Z,76.00
2018-10-21T23:43:54.547Z,76.46
2018-10-21T23:46:23.434Z,76.37
2018-10-21T23:48:52.907Z,75.75
2018-10-21T23:51:22.884Z,76.12
2018-10-21T23:53:51.766Z,76.34
2018-10-21T23:56:20.650Z,76.07
2018-10-21T23:58:51.600Z,75.78
